Carver, MN (55315)

7:35 PM CDT on April 24, 2015 (GMT -0500)
East Union | | Change Station
CLOSE
Current Station
Personal Weather Station
Location: Carver, MN
Elevation: 843 ft
Nearby Weather Stations

Elev 843 ft 44.72 °N, 93.67 °W | Updated 7 minutes ago

Overcast
Overcast
43.9 °F
Feels Like 44 °F
N
2.2
Wind Variable Wind from SE
Gusts 4.5 mph

Today
High -- | Low -- °F
--% Chance of Precip.
Yesterday
High -- | Low -- °F
Precip. -- in
6:15 AM 8:10 PM
Waxing Crescent, 40% visible
Pressure 29.78 in
Visibility 2.5 miles
Clouds Scattered Clouds 1300 ft
Overcast 2700 ft
Windchill 44 °F
Dew Point 41 °F
Humidity 91%
Rainfall 0.00 in
Snow Depth Not available.
UV 0 out of 12
Pollen 9.20 out of 12
Air Quality Not available.
Flu Activity Local Activity
SPECI KFCM 250016Z 12016G22KT 2 1/2SM RA BR SCT013 OVC027 07/04 A2978 RMK AO2 RAE2354B11 P0004 T00670044

More Conditions Fewer Conditions

Pressure 29.78 in
Visibility 2.5 miles
Clouds Scattered Clouds 1300 ft
Overcast 2700 ft
Windchill 44 °F
Dew Point 41 °F
Humidity 91%
Rainfall 0.00 in
Snow Depth Not available.
UV 0 out of 12
Pollen 9.20 out of 12
Air Quality Not available.
Flu Activity Local Activity
SPECI KFCM 250016Z 12016G22KT 2 1/2SM RA BR SCT013 OVC027 07/04 A2978 RMK AO2 RAE2354B11 P0004 T00670044

More Conditions Fewer Conditions

10-Day Weather Forecast

Almanac

Astronomy

Apr. 24, 2015 Rise Set
Actual Time
Civil Twilight
Nautical Twilight
Astronomical Twilight
Moon
Length of Visible Light
Length of Day
Tomorrow will be .
, % of the Moon is Illuminated

Today's Extremes

State Highs State Lows

Community

WunderPhotos

Upload Photos

1,816,516 photos uploaded!

WunderBlogs® & News

Nearby

Air Quality

  Air Quality AQ Index Pollutant
Not available.

Snow Depth

Station Depth Elevation

Earthquake Activity

City Distance Mag. Time & Date
Minimum magnitude displayed is 2.5.

Coastal Water Temperatures

Place Temperature

Stations

Nearby Weather Stations

Station Location Temp. Windchill Dew Point Humidity Wind Precip. Elev Updated Type